sensor_id;sensor_type;location;lat;lon;timestamp;pressure;altitude;pressure_sealevel;temperature
28305;BMP280;15569;42.652;23.040;2023-05-24T00:01:05;92842.25;;;16.58
28305;BMP280;15569;42.652;23.040;2023-05-24T00:03:32;92844.38;;;16.60
28305;BMP280;15569;42.652;23.040;2023-05-24T00:05:59;92841.41;;;16.52
28305;BMP280;15569;42.652;23.040;2023-05-24T00:08:25;92855.19;;;16.54
28305;BMP280;15569;42.652;23.040;2023-05-24T00:10:50;92851.84;;;16.57
28305;BMP280;15569;42.652;23.040;2023-05-24T00:13:15;92839.19;;;16.44
28305;BMP280;15569;42.652;23.040;2023-05-24T00:15:41;92843.56;;;16.55
28305;BMP280;15569;42.652;23.040;2023-05-24T00:18:06;92840.19;;;16.57
28305;BMP280;15569;42.652;23.040;2023-05-24T00:20:32;92834.63;;;16.55
28305;BMP280;15569;42.652;23.040;2023-05-24T00:22:57;92830.66;;;16.60
28305;BMP280;15569;42.652;23.040;2023-05-24T00:25:22;92831.22;;;16.54
28305;BMP280;15569;42.652;23.040;2023-05-24T00:27:48;92837.88;;;16.47
28305;BMP280;15569;42.652;23.040;2023-05-24T00:30:13;92828.59;;;16.33
28305;BMP280;15569;42.652;23.040;2023-05-24T00:32:39;92834.88;;;16.37
28305;BMP280;15569;42.652;23.040;2023-05-24T00:35:05;92835.53;;;16.36
28305;BMP280;15569;42.652;23.040;2023-05-24T00:37:30;92817.47;;;16.27
28305;BMP280;15569;42.652;23.040;2023-05-24T00:39:56;92819.66;;;16.32
28305;BMP280;15569;42.652;23.040;2023-05-24T00:42:21;92822.03;;;16.46
28305;BMP280;15569;42.652;23.040;2023-05-24T00:44:47;92815.78;;;16.41
28305;BMP280;15569;42.652;23.040;2023-05-24T00:47:12;92822.66;;;16.42
28305;BMP280;15569;42.652;23.040;2023-05-24T00:49:38;92811.53;;;16.36
28305;BMP280;15569;42.652;23.040;2023-05-24T00:52:04;92821.91;;;16.40
28305;BMP280;15569;42.652;23.040;2023-05-24T00:54:30;92803.97;;;16.35
28305;BMP280;15569;42.652;23.040;2023-05-24T00:56:56;92824.00;;;16.41
28305;BMP280;15569;42.652;23.040;2023-05-24T00:59:22;92815.75;;;16.39
28305;BMP280;15569;42.652;23.040;2023-05-24T01:01:48;92822.59;;;16.40
28305;BMP280;15569;42.652;23.040;2023-05-24T01:04:13;92808.75;;;16.34
28305;BMP280;15569;42.652;23.040;2023-05-24T01:07:15;92823.16;;;16.35
28305;BMP280;15569;42.652;23.040;2023-05-24T01:12:25;92831.00;;;16.18
28305;BMP280;15569;42.652;23.040;2023-05-24T01:17:32;92844.75;;;16.20
28305;BMP280;15569;42.652;23.040;2023-05-24T01:25:51;92846.94;;;16.26
28305;BMP280;15569;42.652;23.040;2023-05-24T01:28:18;92841.34;;;16.22
28305;BMP280;15569;42.652;23.040;2023-05-24T01:30:45;92839.84;;;16.17
28305;BMP280;15569;42.652;23.040;2023-05-24T01:33:10;92848.03;;;16.15
28305;BMP280;15569;42.652;23.040;2023-05-24T01:35:36;92842.66;;;16.19
28305;BMP280;15569;42.652;23.040;2023-05-24T01:38:05;92841.34;;;16.22
28305;BMP280;15569;42.652;23.040;2023-05-24T01:40:32;92835.88;;;16.22
28305;BMP280;15569;42.652;23.040;2023-05-24T01:43:03;92837.13;;;16.17
28305;BMP280;15569;42.652;23.040;2023-05-24T01:45:35;92834.44;;;16.19
28305;BMP280;15569;42.652;23.040;2023-05-24T01:48:09;92839.75;;;16.13
28305;BMP280;15569;42.652;23.040;2023-05-24T01:50:53;92815.50;;;16.03
28305;BMP280;15569;42.652;23.040;2023-05-24T01:53:20;92829.50;;;16.13
28305;BMP280;15569;42.652;23.040;2023-05-24T01:55:48;92828.13;;;16.14
28305;BMP280;15569;42.652;23.040;2023-05-24T01:58:16;92828.63;;;16.07
28305;BMP280;15569;42.652;23.040;2023-05-24T02:00:43;92828.09;;;16.12
28305;BMP280;15569;42.652;23.040;2023-05-24T02:03:12;92833.47;;;16.08
28305;BMP280;15569;42.652;23.040;2023-05-24T02:05:38;92830.06;;;16.10
28305;BMP280;15569;42.652;23.040;2023-05-24T02:08:03;92813.56;;;16.08
28305;BMP280;15569;42.652;23.040;2023-05-24T02:10:29;92820.41;;;16.07
28305;BMP280;15569;42.652;23.040;2023-05-24T02:12:54;92818.78;;;15.98
28305;BMP280;15569;42.652;23.040;2023-05-24T02:15:20;92826.97;;;15.96
28305;BMP280;15569;42.652;23.040;2023-05-24T02:17:45;92822.81;;;15.95
28305;BMP280;15569;42.652;23.040;2023-05-24T02:20:12;92802.81;;;15.90
28305;BMP280;15569;42.652;23.040;2023-05-24T02:22:37;92817.88;;;15.89
28305;BMP280;15569;42.652;23.040;2023-05-24T02:25:03;92809.72;;;15.91
28305;BMP280;15569;42.652;23.040;2023-05-24T02:27:29;92810.00;;;15.78
28305;BMP280;15569;42.652;23.040;2023-05-24T02:29:54;92806.84;;;15.62
28305;BMP280;15569;42.652;23.040;2023-05-24T02:32:20;92811.63;;;15.61
28305;BMP280;15569;42.652;23.040;2023-05-24T02:34:45;92809.69;;;15.66
28305;BMP280;15569;42.652;23.040;2023-05-24T02:37:10;92802.66;;;15.59
28305;BMP280;15569;42.652;23.040;2023-05-24T02:39:40;92817.88;;;15.64
28305;BMP280;15569;42.652;23.040;2023-05-24T02:42:06;92809.84;;;15.72
28305;BMP280;15569;42.652;23.040;2023-05-24T02:44:33;92814.06;;;15.75
28305;BMP280;15569;42.652;23.040;2023-05-24T02:46:58;92816.72;;;15.71
28305;BMP280;15569;42.652;23.040;2023-05-24T02:49:24;92818.22;;;15.76
28305;BMP280;15569;42.652;23.040;2023-05-24T02:51:49;92822.34;;;15.77
28305;BMP280;15569;42.652;23.040;2023-05-24T02:54:15;92822.03;;;15.65
28305;BMP280;15569;42.652;23.040;2023-05-24T02:56:41;92821.66;;;15.53
28305;BMP280;15569;42.652;23.040;2023-05-24T02:59:07;92819.91;;;15.40
28305;BMP280;15569;42.652;23.040;2023-05-24T03:01:32;92815.31;;;15.46
28305;BMP280;15569;42.652;23.040;2023-05-24T03:03:58;92820.59;;;15.64
28305;BMP280;15569;42.652;23.040;2023-05-24T03:06:24;92822.22;;;15.73
28305;BMP280;15569;42.652;23.040;2023-05-24T03:08:49;92826.25;;;15.70
28305;BMP280;15569;42.652;23.040;2023-05-24T03:11:15;92834.75;;;15.80
28305;BMP280;15569;42.652;23.040;2023-05-24T03:13:41;92834.75;;;15.80
28305;BMP280;15569;42.652;23.040;2023-05-24T03:16:06;92837.50;;;15.80
28305;BMP280;15569;42.652;23.040;2023-05-24T03:18:32;92844.50;;;15.85
28305;BMP280;15569;42.652;23.040;2023-05-24T03:20:57;92845.88;;;15.86
28305;BMP280;15569;42.652;23.040;2023-05-24T03:23:22;92835.50;;;15.82
28305;BMP280;15569;42.652;23.040;2023-05-24T03:25:48;92845.94;;;15.88
28305;BMP280;15569;42.652;23.040;2023-05-24T03:28:13;92843.94;;;15.90
28305;BMP280;15569;42.652;23.040;2023-05-24T03:30:39;92846.56;;;15.86
28305;BMP280;15569;42.652;23.040;2023-05-24T03:33:05;92841.22;;;15.90
28305;BMP280;15569;42.652;23.040;2023-05-24T03:35:30;92852.72;;;15.85
28305;BMP280;15569;42.652;23.040;2023-05-24T03:37:55;92843.88;;;15.88
28305;BMP280;15569;42.652;23.040;2023-05-24T03:40:21;92844.06;;;15.94
28305;BMP280;15569;42.652;23.040;2023-05-24T03:42:46;92847.72;;;16.03
28305;BMP280;15569;42.652;23.040;2023-05-24T03:45:12;92848.63;;;16.11
28305;BMP280;15569;42.652;23.040;2023-05-24T03:47:37;92844.44;;;16.08
28305;BMP280;15569;42.652;23.040;2023-05-24T03:50:03;92852.09;;;16.14
28305;BMP280;15569;42.652;23.040;2023-05-24T03:52:28;92857.75;;;16.20
28305;BMP280;15569;42.652;23.040;2023-05-24T03:54:53;92854.44;;;16.24
28305;BMP280;15569;42.652;23.040;2023-05-24T03:57:19;92859.94;;;16.24
28305;BMP280;15569;42.652;23.040;2023-05-24T03:59:44;92843.72;;;16.34
28305;BMP280;15569;42.652;23.040;2023-05-24T04:02:10;92840.38;;;16.37
28305;BMP280;15569;42.652;23.040;2023-05-24T04:04:35;92853.63;;;16.45
28305;BMP280;15569;42.652;23.040;2023-05-24T04:07:03;92859.66;;;16.41
28305;BMP280;15569;42.652;23.040;2023-05-24T04:09:29;92854.88;;;16.42
28305;BMP280;15569;42.652;23.040;2023-05-24T04:11:54;92859.94;;;16.51
28305;BMP280;15569;42.652;23.040;2023-05-24T04:14:19;92855.19;;;16.54
28305;BMP280;15569;42.652;23.040;2023-05-24T04:16:45;92856.00;;;16.58
28305;BMP280;15569;42.652;23.040;2023-05-24T04:19:11;92852.63;;;16.62
28305;BMP280;15569;42.652;23.040;2023-05-24T04:21:37;92857.56;;;16.65
28305;BMP280;15569;42.652;23.040;2023-05-24T04:24:03;92853.94;;;16.59
28305;BMP280;15569;42.652;23.040;2023-05-24T04:26:29;92869.22;;;16.38
28305;BMP280;15569;42.652;23.040;2023-05-24T04:28:56;92875.13;;;16.54
28305;BMP280;15569;42.652;23.040;2023-05-24T04:31:21;92870.22;;;16.51
28305;BMP280;15569;42.652;23.040;2023-05-24T04:33:47;92874.00;;;16.38
28305;BMP280;15569;42.652;23.040;2023-05-24T04:36:14;92875.41;;;16.13
28305;BMP280;15569;42.652;23.040;2023-05-24T04:38:40;92875.97;;;16.35
28305;BMP280;15569;42.652;23.040;2023-05-24T04:41:05;92866.78;;;16.50
28305;BMP280;15569;42.652;23.040;2023-05-24T04:43:32;92869.88;;;16.66
28305;BMP280;15569;42.652;23.040;2023-05-24T04:45:58;92872.31;;;16.80
28305;BMP280;15569;42.652;23.040;2023-05-24T04:48:24;92878.84;;;16.96
28305;BMP280;15569;42.652;23.040;2023-05-24T04:50:53;92869.75;;;16.60
28305;BMP280;15569;42.652;23.040;2023-05-24T04:53:20;92871.34;;;16.69
28305;BMP280;15569;42.652;23.040;2023-05-24T04:55:46;92866.34;;;16.60
28305;BMP280;15569;42.652;23.040;2023-05-24T04:58:12;92868.31;;;16.57
28305;BMP280;15569;42.652;23.040;2023-05-24T05:00:38;92876.09;;;16.67
28305;BMP280;15569;42.652;23.040;2023-05-24T05:03:03;92864.03;;;16.50
28305;BMP280;15569;42.652;23.040;2023-05-24T05:05:28;92878.34;;;16.74
28305;BMP280;15569;42.652;23.040;2023-05-24T05:07:54;92883.25;;;16.78
28305;BMP280;15569;42.652;23.040;2023-05-24T05:10:19;92888.94;;;16.88
28305;BMP280;15569;42.652;23.040;2023-05-24T05:12:45;92884.66;;;16.81
28305;BMP280;15569;42.652;23.040;2023-05-24T05:15:10;92886.00;;;17.07
28305;BMP280;15569;42.652;23.040;2023-05-24T05:17:36;92883.41;;;17.13
28305;BMP280;15569;42.652;23.040;2023-05-24T05:20:02;92886.28;;;17.20
28305;BMP280;15569;42.652;23.040;2023-05-24T05:22:28;92883.13;;;17.33
28305;BMP280;15569;42.652;23.040;2023-05-24T05:24:53;92887.72;;;17.54
28305;BMP280;15569;42.652;23.040;2023-05-24T05:27:19;92877.69;;;17.67
28305;BMP280;15569;42.652;23.040;2023-05-24T05:29:44;92881.00;;;17.61
28305;BMP280;15569;42.652;23.040;2023-05-24T05:32:09;92884.56;;;17.36
28305;BMP280;15569;42.652;23.040;2023-05-24T05:34:35;92889.03;;;17.20
28305;BMP280;15569;42.652;23.040;2023-05-24T05:37:00;92887.19;;;17.30
28305;BMP280;15569;42.652;23.040;2023-05-24T05:39:26;92887.06;;;17.24
28305;BMP280;15569;42.652;23.040;2023-05-24T05:41:51;92889.59;;;17.46
28305;BMP280;15569;42.652;23.040;2023-05-24T05:44:16;92883.22;;;17.37
28305;BMP280;15569;42.652;23.040;2023-05-24T05:46:42;92891.94;;;17.28
28305;BMP280;15569;42.652;23.040;2023-05-24T05:49:11;92896.03;;;17.27
28305;BMP280;15569;42.652;23.040;2023-05-24T05:51:36;92893.28;;;17.27
28305;BMP280;15569;42.652;23.040;2023-05-24T05:54:03;92896.13;;;17.31
28305;BMP280;15569;42.652;23.040;2023-05-24T05:56:29;92893.69;;;17.45
28305;BMP280;15569;42.652;23.040;2023-05-24T05:58:54;92904.03;;;17.46
28305;BMP280;15569;42.652;23.040;2023-05-24T06:01:20;92905.53;;;17.22
28305;BMP280;15569;42.652;23.040;2023-05-24T06:03:45;92889.25;;;17.30
28305;BMP280;15569;42.652;23.040;2023-05-24T06:06:10;92900.00;;;17.83
28305;BMP280;15569;42.652;23.040;2023-05-24T06:08:36;92896.22;;;18.00
28305;BMP280;15569;42.652;23.040;2023-05-24T06:11:01;92898.97;;;18.38
28305;BMP280;15569;42.652;23.040;2023-05-24T06:13:27;92904.53;;;18.40
28305;BMP280;15569;42.652;23.040;2023-05-24T06:15:53;92906.78;;;18.51
28305;BMP280;15569;42.652;23.040;2023-05-24T06:18:19;92902.38;;;18.36
28305;BMP280;15569;42.652;23.040;2023-05-24T06:20:45;92903.31;;;18.13
28305;BMP280;15569;42.652;23.040;2023-05-24T06:23:11;92899.88;;;18.12
28305;BMP280;15569;42.652;23.040;2023-05-24T06:25:36;92909.16;;;18.31
28305;BMP280;15569;42.652;23.040;2023-05-24T06:28:03;92904.88;;;18.22
28305;BMP280;15569;42.652;23.040;2023-05-24T06:30:28;92918.53;;;18.18
28305;BMP280;15569;42.652;23.040;2023-05-24T06:32:53;92909.63;;;18.17
28305;BMP280;15569;42.652;23.040;2023-05-24T06:35:19;92908.66;;;18.41
28305;BMP280;15569;42.652;23.040;2023-05-24T06:37:44;92913.97;;;18.68
28305;BMP280;15569;42.652;23.040;2023-05-24T06:40:10;92911.38;;;18.78
28305;BMP280;15569;42.652;23.040;2023-05-24T06:42:36;92901.06;;;18.79
28305;BMP280;15569;42.652;23.040;2023-05-24T06:45:02;92897.78;;;18.88
28305;BMP280;15569;42.652;23.040;2023-05-24T06:47:28;92908.81;;;18.88
28305;BMP280;15569;42.652;23.040;2023-05-24T06:49:53;92900.22;;;19.14
28305;BMP280;15569;42.652;23.040;2023-05-24T06:52:18;92902.66;;;19.38
28305;BMP280;15569;42.652;23.040;2023-05-24T06:54:44;92906.88;;;19.45
28305;BMP280;15569;42.652;23.040;2023-05-24T06:57:09;92900.84;;;19.56
28305;BMP280;15569;42.652;23.040;2023-05-24T06:59:34;92908.66;;;19.76
28305;BMP280;15569;42.652;23.040;2023-05-24T07:02:00;92903.84;;;19.76
28305;BMP280;15569;42.652;23.040;2023-05-24T07:04:25;92905.53;;;19.46
28305;BMP280;15569;42.652;23.040;2023-05-24T07:06:52;92901.53;;;19.57
28305;BMP280;15569;42.652;23.040;2023-05-24T07:09:18;92901.16;;;19.80
28305;BMP280;15569;42.652;23.040;2023-05-24T07:11:43;92908.53;;;19.66
28305;BMP280;15569;42.652;23.040;2023-05-24T07:14:09;92904.56;;;19.77
28305;BMP280;15569;42.652;23.040;2023-05-24T07:16:35;92901.63;;;19.63
28305;BMP280;15569;42.652;23.040;2023-05-24T07:19:00;92889.19;;;19.60
28305;BMP280;15569;42.652;23.040;2023-05-24T07:21:26;92906.56;;;19.72
28305;BMP280;15569;42.652;23.040;2023-05-24T07:23:51;92908.38;;;19.54
28305;BMP280;15569;42.652;23.040;2023-05-24T07:26:17;92912.38;;;19.43
28305;BMP280;15569;42.652;23.040;2023-05-24T07:28:42;92901.66;;;19.67
28305;BMP280;15569;42.652;23.040;2023-05-24T07:31:09;92901.84;;;19.83
28305;BMP280;15569;42.652;23.040;2023-05-24T07:33:37;92912.59;;;19.59
28305;BMP280;15569;42.652;23.040;2023-05-24T07:36:06;92902.00;;;19.93
28305;BMP280;15569;42.652;23.040;2023-05-24T07:38:32;92902.16;;;20.09
28305;BMP280;15569;42.652;23.040;2023-05-24T07:40:59;92905.66;;;20.11
28305;BMP280;15569;42.652;23.040;2023-05-24T07:43:25;92900.66;;;19.98
28305;BMP280;15569;42.652;23.040;2023-05-24T07:45:51;92905.16;;;20.33
28305;BMP280;15569;42.652;23.040;2023-05-24T07:48:21;92899.00;;;20.38
28305;BMP280;15569;42.652;23.040;2023-05-24T07:50:50;92895.00;;;20.54
28305;BMP280;15569;42.652;23.040;2023-05-24T07:53:17;92898.66;;;20.72
28305;BMP280;15569;42.652;23.040;2023-05-24T07:55:42;92895.13;;;20.68
28305;BMP280;15569;42.652;23.040;2023-05-24T07:58:11;92900.16;;;20.87
28305;BMP280;15569;42.652;23.040;2023-05-24T08:00:36;92897.38;;;20.85
28305;BMP280;15569;42.652;23.040;2023-05-24T08:03:03;92896.81;;;21.03
28305;BMP280;15569;42.652;23.040;2023-05-24T08:05:29;92901.75;;;21.14
28305;BMP280;15569;42.652;23.040;2023-05-24T08:07:55;92894.84;;;21.19
28305;BMP280;15569;42.652;23.040;2023-05-24T08:10:21;92903.19;;;21.27
28305;BMP280;15569;42.652;23.040;2023-05-24T08:12:47;92901.84;;;21.30
28305;BMP280;15569;42.652;23.040;2023-05-24T08:15:15;92885.94;;;21.35
28305;BMP280;15569;42.652;23.040;2023-05-24T08:17:41;92893.59;;;21.40
28305;BMP280;15569;42.652;23.040;2023-05-24T08:20:07;92899.88;;;21.49
28305;BMP280;15569;42.652;23.040;2023-05-24T08:22:34;92886.78;;;21.59
28305;BMP280;15569;42.652;23.040;2023-05-24T08:24:59;92884.06;;;21.68
28305;BMP280;15569;42.652;23.040;2023-05-24T08:27:25;92892.38;;;21.76
28305;BMP280;15569;42.652;23.040;2023-05-24T08:29:53;92885.50;;;21.87
28305;BMP280;15569;42.652;23.040;2023-05-24T08:32:18;92886.19;;;21.83
28305;BMP280;15569;42.652;23.040;2023-05-24T08:34:44;92891.00;;;21.69
28305;BMP280;15569;42.652;23.040;2023-05-24T08:37:09;92888.97;;;21.87
28305;BMP280;15569;42.652;23.040;2023-05-24T08:39:35;92891.81;;;22.11
28305;BMP280;15569;42.652;23.040;2023-05-24T08:42:01;92884.91;;;22.14
28305;BMP280;15569;42.652;23.040;2023-05-24T08:44:27;92878.66;;;22.10
28305;BMP280;15569;42.652;23.040;2023-05-24T08:46:54;92875.88;;;22.14
28305;BMP280;15569;42.652;23.040;2023-05-24T08:49:20;92882.13;;;22.06
28305;BMP280;15569;42.652;23.040;2023-05-24T08:51:46;92889.75;;;22.18
28305;BMP280;15569;42.652;23.040;2023-05-24T08:54:12;92893.94;;;22.27
28305;BMP280;15569;42.652;23.040;2023-05-24T08:56:39;92891.22;;;22.43
28305;BMP280;15569;42.652;23.040;2023-05-24T08:59:07;92882.16;;;22.40
28305;BMP280;15569;42.652;23.040;2023-05-24T09:01:33;92891.22;;;22.63
28305;BMP280;15569;42.652;23.040;2023-05-24T09:04:01;92898.81;;;22.62
28305;BMP280;15569;42.652;23.040;2023-05-24T09:06:27;92891.19;;;22.77
28305;BMP280;15569;42.652;23.040;2023-05-24T09:08:54;92892.59;;;22.82
28305;BMP280;15569;42.652;23.040;2023-05-24T09:11:22;92882.88;;;22.67
28305;BMP280;15569;42.652;23.040;2023-05-24T09:13:48;92889.81;;;22.98
28305;BMP280;15569;42.652;23.040;2023-05-24T09:16:14;92889.13;;;22.85
28305;BMP280;15569;42.652;23.040;2023-05-24T09:18:40;92885.66;;;22.91
28305;BMP280;15569;42.652;23.040;2023-05-24T09:21:12;92876.66;;;22.90
28305;BMP280;15569;42.652;23.040;2023-05-24T09:23:39;92888.41;;;23.03
28305;BMP280;15569;42.652;23.040;2023-05-24T09:26:08;92891.16;;;23.15
28305;BMP280;15569;42.652;23.040;2023-05-24T09:28:34;92887.00;;;23.18
28305;BMP280;15569;42.652;23.040;2023-05-24T09:31:01;92889.03;;;23.44
28305;BMP280;15569;42.652;23.040;2023-05-24T09:33:31;92884.25;;;23.28
28305;BMP280;15569;42.652;23.040;2023-05-24T09:35:58;92893.91;;;23.37
28305;BMP280;15569;42.652;23.040;2023-05-24T09:38:24;92887.00;;;23.22
28305;BMP280;15569;42.652;23.040;2023-05-24T09:41:06;92889.72;;;23.40
28305;BMP280;15569;42.652;23.040;2023-05-24T09:43:33;92889.72;;;23.36
28305;BMP280;15569;42.652;23.040;2023-05-24T09:46:02;92886.97;;;23.30
28305;BMP280;15569;42.652;23.040;2023-05-24T09:48:29;92875.91;;;23.20
28305;BMP280;15569;42.652;23.040;2023-05-24T09:51:07;92873.81;;;23.29
28305;BMP280;15569;42.652;23.040;2023-05-24T09:53:34;92877.94;;;23.36
28305;BMP280;15569;42.652;23.040;2023-05-24T09:56:02;92859.94;;;23.29
28305;BMP280;15569;42.652;23.040;2023-05-24T10:01:10;92878.53;;;23.70
28305;BMP280;15569;42.652;23.040;2023-05-24T10:03:36;92875.03;;;23.78
28305;BMP280;15569;42.652;23.040;2023-05-24T10:06:03;92878.44;;;23.86
28305;BMP280;15569;42.652;23.040;2023-05-24T10:08:33;92868.69;;;23.95
28305;BMP280;15569;42.652;23.040;2023-05-24T10:11:00;92865.88;;;24.01
28305;BMP280;15569;42.652;23.040;2023-05-24T10:13:27;92871.47;;;23.95
28305;BMP280;15569;42.652;23.040;2023-05-24T10:15:52;92874.91;;;23.98
28305;BMP280;15569;42.652;23.040;2023-05-24T10:18:18;92867.28;;;24.02
28305;BMP280;15569;42.652;23.040;2023-05-24T10:20:43;92867.28;;;23.98
28305;BMP280;15569;42.652;23.040;2023-05-24T10:23:10;92866.56;;;24.04
28305;BMP280;15569;42.652;23.040;2023-05-24T10:25:41;92871.47;;;23.93
28305;BMP280;15569;42.652;23.040;2023-05-24T10:28:10;92858.22;;;24.08
28305;BMP280;15569;42.652;23.040;2023-05-24T10:30:47;92849.13;;;24.19
28305;BMP280;15569;42.652;23.040;2023-05-24T10:33:15;92855.38;;;24.14
28305;BMP280;15569;42.652;23.040;2023-05-24T10:35:42;92858.16;;;24.14
28305;BMP280;15569;42.652;23.040;2023-05-24T10:38:08;92855.97;;;24.30
28305;BMP280;15569;42.652;23.040;2023-05-24T10:40:40;92851.75;;;24.42
28305;BMP280;15569;42.652;23.040;2023-05-24T10:43:06;92836.34;;;24.59
28305;BMP280;15569;42.652;23.040;2023-05-24T10:45:33;92847.47;;;24.53
28305;BMP280;15569;42.652;23.040;2023-05-24T10:50:40;92837.66;;;24.64
28305;BMP280;15569;42.652;23.040;2023-05-24T10:53:20;92841.84;;;24.61
28305;BMP280;15569;42.652;23.040;2023-05-24T10:55:56;92842.63;;;24.49
28305;BMP280;15569;42.652;23.040;2023-05-24T10:58:27;92842.56;;;24.61
28305;BMP280;15569;42.652;23.040;2023-05-24T11:00:54;92829.31;;;24.64
28305;BMP280;15569;42.652;23.040;2023-05-24T11:03:22;92839.75;;;24.65
28305;BMP280;15569;42.652;23.040;2023-05-24T11:08:34;92833.22;;;24.93
28305;BMP280;15569;42.652;23.040;2023-05-24T11:13:29;92832.69;;;25.41
28305;BMP280;15569;42.652;23.040;2023-05-24T11:15:55;92820.69;;;25.56
28305;BMP280;15569;42.652;23.040;2023-05-24T11:18:23;92832.63;;;25.47
28305;BMP280;15569;42.652;23.040;2023-05-24T11:20:48;92834.09;;;25.40
28305;BMP280;15569;42.652;23.040;2023-05-24T11:23:14;92821.38;;;25.57
28305;BMP280;15569;42.652;23.040;2023-05-24T11:25:41;92821.16;;;25.73
28305;BMP280;15569;42.652;23.040;2023-05-24T11:28:10;92821.34;;;25.59
28305;BMP280;15569;42.652;23.040;2023-05-24T11:33:13;92825.69;;;25.99
28305;BMP280;15569;42.652;23.040;2023-05-24T11:35:38;92816.97;;;26.23
28305;BMP280;15569;42.652;23.040;2023-05-24T11:38:08;92821.81;;;26.24
28305;BMP280;15569;42.652;23.040;2023-05-24T11:40:36;92818.47;;;26.58
28305;BMP280;15569;42.652;23.040;2023-05-24T11:43:05;92812.59;;;26.74
28305;BMP280;15569;42.652;23.040;2023-05-24T11:45:30;92822.09;;;26.89
28305;BMP280;15569;42.652;23.040;2023-05-24T11:47:56;92821.94;;;26.97
28305;BMP280;15569;42.652;23.040;2023-05-24T11:50:24;92820.81;;;27.21
28305;BMP280;15569;42.652;23.040;2023-05-24T11:52:50;92803.84;;;27.31
28305;BMP280;15569;42.652;23.040;2023-05-24T11:55:23;92811.34;;;27.40
28305;BMP280;15569;42.652;23.040;2023-05-24T11:57:54;92814.38;;;27.28
28305;BMP280;15569;42.652;23.040;2023-05-24T12:00:25;92814.63;;;27.16
28305;BMP280;15569;42.652;23.040;2023-05-24T12:02:51;92807.53;;;27.21
28305;BMP280;15569;42.652;23.040;2023-05-24T12:05:20;92805.94;;;27.30
28305;BMP280;15569;42.652;23.040;2023-05-24T12:07:46;92805.44;;;27.56
28305;BMP280;15569;42.652;23.040;2023-05-24T12:10:15;92809.25;;;27.74
28305;BMP280;15569;42.652;23.040;2023-05-24T12:12:42;92802.63;;;27.89
28305;BMP280;15569;42.652;23.040;2023-05-24T12:15:09;92800.06;;;28.08
28305;BMP280;15569;42.652;23.040;2023-05-24T12:17:35;92800.97;;;28.29
28305;BMP280;15569;42.652;23.040;2023-05-24T12:20:02;92796.84;;;28.26
28305;BMP280;15569;42.652;23.040;2023-05-24T12:22:28;92804.97;;;28.64
28305;BMP280;15569;42.652;23.040;2023-05-24T12:24:56;92786.00;;;28.67
28305;BMP280;15569;42.652;23.040;2023-05-24T12:27:26;92796.03;;;28.60
28305;BMP280;15569;42.652;23.040;2023-05-24T12:29:51;92783.22;;;28.93
28305;BMP280;15569;42.652;23.040;2023-05-24T12:32:17;92783.00;;;29.01
28305;BMP280;15569;42.652;23.040;2023-05-24T12:34:43;92774.50;;;28.79
28305;BMP280;15569;42.652;23.040;2023-05-24T12:37:10;92779.28;;;29.09
28305;BMP280;15569;42.652;23.040;2023-05-24T12:39:36;92776.38;;;29.13
28305;BMP280;15569;42.652;23.040;2023-05-24T12:42:03;92784.28;;;29.06
28305;BMP280;15569;42.652;23.040;2023-05-24T12:44:33;92765.19;;;28.62
28305;BMP280;15569;42.652;23.040;2023-05-24T12:47:00;92779.78;;;28.38
28305;BMP280;15569;42.652;23.040;2023-05-24T12:49:26;92778.47;;;28.88
28305;BMP280;15569;42.652;23.040;2023-05-24T12:51:53;92789.09;;;28.83
28305;BMP280;15569;42.652;23.040;2023-05-24T12:54:21;92776.00;;;29.27
28305;BMP280;15569;42.652;23.040;2023-05-24T12:56:47;92784.97;;;29.31
28305;BMP280;15569;42.652;23.040;2023-05-24T12:59:12;92775.25;;;29.73
28305;BMP280;15569;42.652;23.040;2023-05-24T13:01:39;92775.97;;;29.02
28305;BMP280;15569;42.652;23.040;2023-05-24T13:04:04;92778.19;;;29.47
28305;BMP280;15569;42.652;23.040;2023-05-24T13:06:29;92775.53;;;29.65
28305;BMP280;15569;42.652;23.040;2023-05-24T13:08:55;92772.94;;;29.10
28305;BMP280;15569;42.652;23.040;2023-05-24T13:11:20;92773.78;;;29.07
28305;BMP280;15569;42.652;23.040;2023-05-24T13:13:47;92770.63;;;29.66
28305;BMP280;15569;42.652;23.040;2023-05-24T13:16:12;92774.13;;;29.64
28305;BMP280;15569;42.652;23.040;2023-05-24T13:18:38;92764.81;;;29.95
28305;BMP280;15569;42.652;23.040;2023-05-24T13:21:04;92754.09;;;30.22
28305;BMP280;15569;42.652;23.040;2023-05-24T13:23:32;92759.81;;;30.40
28305;BMP280;15569;42.652;23.040;2023-05-24T13:25:58;92751.84;;;29.38
28305;BMP280;15569;42.652;23.040;2023-05-24T13:28:24;92755.34;;;29.38
28305;BMP280;15569;42.652;23.040;2023-05-24T13:30:49;92755.13;;;29.22
28305;BMP280;15569;42.652;23.040;2023-05-24T13:33:15;92749.69;;;28.91
28305;BMP280;15569;42.652;23.040;2023-05-24T13:35:40;92749.38;;;29.03
28305;BMP280;15569;42.652;23.040;2023-05-24T13:38:06;92750.75;;;29.51
28305;BMP280;15569;42.652;23.040;2023-05-24T13:40:33;92751.44;;;29.52
28305;BMP280;15569;42.652;23.040;2023-05-24T13:42:58;92752.69;;;28.59
28305;BMP280;15569;42.652;23.040;2023-05-24T13:45:24;92761.06;;;28.32
28305;BMP280;15569;42.652;23.040;2023-05-24T13:47:50;92751.09;;;28.11
28305;BMP280;15569;42.652;23.040;2023-05-24T13:50:16;92757.69;;;27.99
28305;BMP280;15569;42.652;23.040;2023-05-24T13:52:42;92755.53;;;27.71
28305;BMP280;15569;42.652;23.040;2023-05-24T13:55:08;92747.97;;;27.35
28305;BMP280;15569;42.652;23.040;2023-05-24T13:57:34;92744.09;;;26.85
28305;BMP280;15569;42.652;23.040;2023-05-24T13:59:59;92747.81;;;26.72
28305;BMP280;15569;42.652;23.040;2023-05-24T14:02:25;92756.53;;;26.54
28305;BMP280;15569;42.652;23.040;2023-05-24T14:04:51;92755.09;;;26.55
28305;BMP280;15569;42.652;23.040;2023-05-24T14:07:17;92767.00;;;26.51
28305;BMP280;15569;42.652;23.040;2023-05-24T14:09:43;92766.72;;;26.27
28305;BMP280;15569;42.652;23.040;2023-05-24T14:12:09;92755.41;;;25.96
28305;BMP280;15569;42.652;23.040;2023-05-24T14:14:34;92753.50;;;25.82
28305;BMP280;15569;42.652;23.040;2023-05-24T14:17:00;92755.69;;;25.76